Velkommen til min vejrside, der er mangler og fejl som bliver opdateret. Kom snart tilbage og få vejret - Welcome to our website - Welkom op onze vernieuwde website
Bienvenue sur notre site web - Willkommen auf unserer Website - Check our progress frequently. Prüfen Sie unsere Fortschritte regelmäßig. Consultez notre progression fréquemment. Komt u straks nog eens terug


vejr3>nv more information Vejr3>NV


3 timers nedbørs radar more information rain snow radar


besøg nogle andre vejrsider:

Template dokumentation
og downloads

And another site


weather underground historie, tekst side

dagens sammenfatning af december 08, 2017 enheder:  engelsk    metrisk   både
« forgående dag
næste dag »
dagens ugenligt månedlig årligt tilpasset
  høj: lav: gennemsnit:
temperatur: TemperatureC °F 2.0 °F 3.8 °F
dugpunkt: DewpointC °F 0.7 °F 2.3 °F
fugtighed: Humidity % 85 % 90 %
vindhastighed: WindSpeedKMH mph 8.0 mph 21.9 mph
vindstød: WindSpeedGustKMH mph - -
vind:- - SW
lufttryk: PressurehPa in 992.1 in -
nedbør: 0.0 in    
Historical Graphs
 
 
tabeldata for december 08, 2017
tid temperatur dugpunkt lufttryk vind vindhastighed vindstød fugtighed regn (timme)
TemperatureC °F DewpointC °F PressurehPa in Calm     Humidity % HourlyPrecipMM in
00:08 5.6 °F 5.1 °F 992.8 in South 16.7 mph 16.7 mph 97 % 0.0 in
00:13 5.5 °F 5.1 °F 992.8 in SSW 17.7 mph 17.7 mph 97 % 0.0 in
00:18 5.5 °F 5.1 °F 992.8 in South 18.5 mph 18.5 mph 97 % 0.0 in
00:23 5.5 °F 5.1 °F 992.8 in SSE 19.3 mph 19.3 mph 97 % 0.0 in
00:28 5.5 °F 5.1 °F 992.8 in SW 18.5 mph 18.5 mph 97 % 0.0 in
00:43 5.5 °F 5.1 °F 992.8 in SSW 16.7 mph 16.7 mph 97 % 0.0 in
00:53 5.5 °F 5.1 °F 992.8 in SW 20.4 mph 20.4 mph 97 % 0.0 in
01:03 5.5 °F 5.1 °F 992.8 in SSW 25.9 mph 25.9 mph 97 % 0.0 in
01:08 5.6 °F 4.9 °F 992.8 in WSW 22.2 mph 22.2 mph 96 % 0.0 in
01:18 5.6 °F 4.9 °F 992.8 in SW 25.9 mph 25.9 mph 96 % 0.0 in
01:23 5.6 °F 4.9 °F 992.8 in SSW 11.3 mph 11.3 mph 96 % 0.0 in
01:33 5.6 °F 4.8 °F 992.8 in SSW 18.5 mph 18.5 mph 95 % 0.0 in
01:38 5.6 °F 4.8 °F 992.8 in South 31.5 mph 31.5 mph 95 % 0.0 in
01:43 5.6 °F 4.8 °F 992.8 in SW 20.4 mph 20.4 mph 95 % 0.0 in
01:53 5.6 °F 4.7 °F 992.4 in SW 18.5 mph 18.5 mph 94 % 0.0 in
02:08 5.6 °F 4.5 °F 992.4 in South 27.8 mph 27.8 mph 93 % 0.0 in
02:13 5.5 °F 4.4 °F 992.8 in WSW 20.4 mph 20.4 mph 93 % 0.0 in
02:23 5.4 °F 4.3 °F 992.4 in SW 22.2 mph 22.2 mph 93 % 0.0 in
02:38 5.3 °F 4.1 °F 992.4 in SW 25.9 mph 25.9 mph 92 % 0.0 in
02:43 5.2 °F 4.1 °F 992.4 in WSW 16.7 mph 16.7 mph 92 % 0.0 in
02:53 5.2 °F 4.0 °F 992.8 in WSW 18.5 mph 18.5 mph 92 % 0.0 in
02:58 5.1 °F 3.9 °F 992.4 in WSW 18.5 mph 18.5 mph 92 % 0.0 in
03:03 5.1 °F 3.9 °F 992.4 in SW 11.3 mph 11.3 mph 92 % 0.0 in
03:08 4.9 °F 3.8 °F 992.4 in SW 18.5 mph 18.5 mph 92 % 0.0 in
03:18 4.9 °F 3.7 °F 992.4 in SSW 14.8 mph 14.8 mph 92 % 0.0 in
03:23 4.8 °F 3.7 °F 992.4 in WSW 18.5 mph 18.5 mph 92 % 0.0 in
03:28 4.8 °F 3.6 °F 992.4 in WSW 22.2 mph 22.2 mph 92 % 0.0 in
03:33 4.8 °F 3.6 °F 992.4 in SSW 18.5 mph 18.5 mph 92 % 0.0 in
03:38 4.7 °F 3.6 °F 992.4 in WNW 25.9 mph 25.9 mph 92 % 0.0 in
03:48 4.6 °F 3.4 °F 992.4 in SSW 19.3 mph 19.3 mph 92 % 0.0 in
03:53 4.6 °F 3.4 °F 992.4 in SSW 22.2 mph 22.2 mph 92 % 0.0 in
03:58 4.6 °F 3.4 °F 992.4 in West 24.1 mph 24.1 mph 92 % 0.0 in
04:03 4.6 °F 3.4 °F 992.4 in SW 20.9 mph 20.9 mph 92 % 0.0 in
04:16 4.6 °F 3.4 °F 992.1 in SSW 27.8 mph 27.8 mph 92 % 0.0 in
04:21 4.6 °F 3.2 °F 992.4 in SSW 24.1 mph 24.1 mph 91 % 0.0 in
04:22 4.6 °F 3.2 °F 992.1 in SW 19.3 mph 19.3 mph 91 % 0.0 in
04:27 4.5 °F 3.2 °F 992.1 in South 20.4 mph 20.4 mph 91 % 0.0 in
04:32 4.5 °F 3.2 °F 992.1 in SW 14.8 mph 14.8 mph 91 % 0.0 in
04:37 4.4 °F 3.1 °F 992.1 in SW 18.5 mph 18.5 mph 91 % 0.0 in
04:42 4.4 °F 3.1 °F 992.1 in SSW 24.1 mph 24.1 mph 91 % 0.0 in
04:47 4.4 °F 3.1 °F 992.1 in SSE 16.7 mph 16.7 mph 91 % 0.0 in
04:52 4.3 °F 3.0 °F 992.1 in WSW 27.8 mph 27.8 mph 91 % 0.0 in
04:57 4.3 °F 3.0 °F 992.1 in WSW 20.4 mph 20.4 mph 91 % 0.0 in
05:02 4.3 °F 2.9 °F 992.1 in WSW 20.4 mph 20.4 mph 91 % 0.0 in
05:07 4.3 °F 2.9 °F 992.1 in West 20.4 mph 20.4 mph 91 % 0.0 in
05:12 4.3 °F 2.9 °F 992.1 in SW 22.2 mph 22.2 mph 91 % 0.0 in
05:17 4.2 °F 2.7 °F 992.4 in SSW 22.2 mph 22.2 mph 90 % 0.0 in
05:22 4.2 °F 2.7 °F 992.4 in WSW 20.4 mph 20.4 mph 90 % 0.0 in
05:27 4.2 °F 2.7 °F 992.4 in SSW 16.7 mph 16.7 mph 90 % 0.0 in
05:32 4.1 °F 2.6 °F 992.1 in SSW 22.2 mph 22.2 mph 90 % 0.0 in
05:37 4.1 °F 2.6 °F 992.1 in SW 22.2 mph 22.2 mph 90 % 0.0 in
05:42 4.1 °F 2.6 °F 992.1 in SW 25.9 mph 25.9 mph 90 % 0.0 in
05:47 4.1 °F 2.6 °F 992.1 in SSW 20.4 mph 20.4 mph 90 % 0.0 in
05:52 4.1 °F 2.6 °F 992.4 in WSW 24.1 mph 24.1 mph 90 % 0.0 in
05:57 4.1 °F 2.6 °F 992.1 in SW 18.5 mph 18.5 mph 90 % 0.0 in
06:02 4.0 °F 2.7 °F 992.4 in SW 20.4 mph 20.4 mph 91 % 0.0 in
06:07 4.0 °F 2.7 °F 992.4 in West 20.4 mph 20.4 mph 91 % 0.0 in
06:22 4.0 °F 2.7 °F 992.4 in South 22.5 mph 22.5 mph 91 % 0.0 in
06:32 4.1 °F 2.7 °F 992.4 in SW 30.6 mph 30.6 mph 91 % 0.0 in
06:37 4.1 °F 2.8 °F 992.4 in SW 22.5 mph 22.5 mph 91 % 0.0 in
06:42 4.1 °F 2.6 °F 992.1 in SW 29.6 mph 29.6 mph 90 % 0.0 in
06:47 4.2 °F 2.7 °F 992.4 in SW 24.1 mph 24.1 mph 90 % 0.0 in
06:52 4.1 °F 2.6 °F 992.4 in SSW 22.5 mph 22.5 mph 90 % 0.0 in
06:57 4.1 °F 2.6 °F 992.4 in WSW 25.9 mph 25.9 mph 90 % 0.0 in
07:02 4.2 °F 2.7 °F 992.4 in WSW 18.5 mph 18.5 mph 90 % 0.0 in
07:07 4.2 °F 2.7 °F 992.8 in WNW 33.3 mph 33.3 mph 90 % 0.0 in
07:12 3.9 °F 2.4 °F 992.8 in West 18.5 mph 18.5 mph 90 % 0.0 in
07:16 3.7 °F 2.4 °F 992.8 in West 20.4 mph 20.4 mph 91 % 0.0 in
07:21 3.6 °F 2.4 °F 992.4 in WSW 13.0 mph 13.0 mph 92 % 0.0 in
07:26 3.4 °F 2.3 °F 992.4 in WSW 11.1 mph 11.1 mph 92 % 0.0 in
07:31 3.3 °F 2.3 °F 992.8 in WSW 18.5 mph 18.5 mph 93 % 0.0 in
07:36 3.3 °F 2.3 °F 992.4 in WSW 11.3 mph 11.3 mph 93 % 0.0 in
07:41 3.2 °F 2.2 °F 992.8 in WSW 18.5 mph 18.5 mph 93 % 0.0 in
07:46 3.2 °F 2.2 °F 992.8 in WSW 24.1 mph 24.1 mph 93 % 0.0 in
07:51 3.2 °F 2.3 °F 992.8 in SSW 24.1 mph 24.1 mph 94 % 0.0 in
07:56 3.3 °F 2.3 °F 992.8 in SSW 24.1 mph 24.1 mph 93 % 0.0 in
08:01 3.4 °F 2.4 °F 992.8 in SW 20.4 mph 20.4 mph 93 % 0.0 in
08:06 3.5 °F 2.5 °F 992.8 in SSW 27.8 mph 27.8 mph 93 % 0.0 in
08:11 3.6 °F 2.4 °F 992.8 in SSW 25.9 mph 25.9 mph 92 % 0.0 in
08:16 3.6 °F 2.3 °F 992.4 in SSW 18.5 mph 18.5 mph 91 % 0.0 in
08:21 3.6 °F 2.2 °F 992.8 in SW 22.2 mph 22.2 mph 91 % 0.0 in
08:26 3.6 °F 2.4 °F 992.8 in SSW 37.0 mph 37.0 mph 92 % 0.0 in
08:31 3.7 °F 2.5 °F 992.8 in South 19.3 mph 19.3 mph 92 % 0.0 in
08:36 3.8 °F 2.6 °F 993.1 in SSW 22.2 mph 22.2 mph 92 % 0.0 in
08:51 4.1 °F 2.7 °F 993.1 in SW 18.5 mph 18.5 mph 91 % 0.0 in
08:56 4.1 °F 2.7 °F 993.1 in South 24.1 mph 24.1 mph 91 % 0.0 in
09:01 4.1 °F 2.6 °F 993.1 in SW 19.3 mph 19.3 mph 90 % 0.0 in
09:12 4.1 °F 2.6 °F 993.1 in SE 18.5 mph 18.5 mph 90 % 0.0 in
09:17 4.1 °F 2.6 °F 993.1 in West 25.9 mph 25.9 mph 90 % 0.0 in
09:22 4.1 °F 2.6 °F 993.1 in SSW 16.7 mph 16.7 mph 90 % 0.0 in
09:27 4.1 °F 2.6 °F 993.1 in South 18.5 mph 18.5 mph 90 % 0.0 in
09:32 4.1 °F 2.7 °F 993.1 in SSW 22.5 mph 22.5 mph 91 % 0.0 in
09:37 4.1 °F 2.8 °F 993.1 in South 31.5 mph 31.5 mph 91 % 0.0 in
09:42 4.2 °F 2.8 °F 993.1 in West 24.1 mph 24.1 mph 91 % 0.0 in
09:47 4.2 °F 3.1 °F 993.1 in WSW 22.2 mph 22.2 mph 92 % 0.0 in
09:52 4.2 °F 3.1 °F 993.5 in South 32.2 mph 32.2 mph 92 % 0.0 in
09:57 4.2 °F 3.0 °F 993.5 in SSW 31.5 mph 31.5 mph 92 % 0.0 in
10:07 4.1 °F 2.9 °F 993.5 in South 22.2 mph 22.2 mph 92 % 0.0 in
10:12 4.1 °F 2.9 °F 993.8 in South 31.5 mph 31.5 mph 92 % 0.0 in
10:17 4.1 °F 2.9 °F 993.8 in South 31.5 mph 31.5 mph 92 % 0.0 in
10:22 4.1 °F 2.9 °F 993.8 in WSW 18.5 mph 18.5 mph 92 % 0.0 in
10:27 4.1 °F 2.9 °F 993.5 in SW 37.0 mph 37.0 mph 92 % 0.0 in
10:37 3.9 °F 2.8 °F 993.8 in South 20.9 mph 20.9 mph 92 % 0.0 in
10:42 3.9 °F 2.8 °F 993.8 in South 20.4 mph 20.4 mph 92 % 0.0 in
10:47 3.8 °F 2.7 °F 993.8 in SSW 20.9 mph 20.9 mph 92 % 0.0 in
10:52 3.8 °F 2.6 °F 993.8 in SW 22.2 mph 22.2 mph 92 % 0.0 in
10:57 3.8 °F 2.6 °F 993.8 in SSW 20.4 mph 20.4 mph 92 % 0.0 in
11:02 3.8 °F 2.7 °F 993.8 in SSE 25.9 mph 25.9 mph 93 % 0.0 in
11:07 3.8 °F 2.7 °F 993.8 in South 27.8 mph 27.8 mph 93 % 0.0 in
11:12 3.7 °F 2.7 °F 993.8 in SSW 20.4 mph 20.4 mph 93 % 0.0 in
11:17 3.6 °F 2.6 °F 993.8 in SW 24.1 mph 24.1 mph 93 % 0.0 in
11:22 3.6 °F 2.6 °F 993.8 in SW 20.4 mph 20.4 mph 93 % 0.0 in
11:27 3.6 °F 2.4 °F 993.8 in SSW 20.4 mph 20.4 mph 92 % 0.0 in
11:37 3.7 °F 2.6 °F 993.8 in WSW 24.1 mph 24.1 mph 92 % 0.0 in
11:42 3.8 °F 2.7 °F 993.8 in South 22.2 mph 22.2 mph 92 % 0.0 in
11:47 3.9 °F 2.8 °F 993.8 in West 18.5 mph 18.5 mph 92 % 0.0 in
11:52 4.1 °F 2.7 °F 993.8 in SSW 18.5 mph 18.5 mph 91 % 0.0 in
11:57 4.1 °F 2.7 °F 993.8 in SW 24.1 mph 24.1 mph 91 % 0.0 in
12:02 4.1 °F 2.6 °F 993.8 in SSW 32.2 mph 32.2 mph 90 % 0.0 in
12:12 4.2 °F 2.7 °F 993.8 in SW 32.2 mph 32.2 mph 90 % 0.0 in
12:17 4.3 °F 2.8 °F 993.5 in South 25.9 mph 25.9 mph 90 % 0.0 in
12:22 4.4 °F 2.9 °F 993.5 in WSW 22.2 mph 22.2 mph 90 % 0.0 in
12:27 4.5 °F 3.0 °F 993.5 in SSE 29.0 mph 29.0 mph 90 % 0.0 in
12:32 4.6 °F 2.9 °F 993.5 in SSW 27.8 mph 27.8 mph 89 % 0.0 in
12:37 4.7 °F 3.0 °F 993.5 in SW 24.1 mph 24.1 mph 89 % 0.0 in
12:57 4.7 °F 2.9 °F 993.5 in SSW 20.4 mph 20.4 mph 88 % 0.0 in
13:02 4.7 °F 2.9 °F 993.5 in SW 30.6 mph 30.6 mph 88 % 0.0 in
13:12 4.8 °F 3.0 °F 993.1 in West 22.2 mph 22.2 mph 88 % 0.0 in
13:17 4.8 °F 3.0 °F 993.1 in SW 25.7 mph 25.7 mph 88 % 0.0 in
13:22 4.8 °F 2.9 °F 993.1 in SSW 20.4 mph 20.4 mph 88 % 0.0 in
13:27 4.8 °F 3.0 °F 993.1 in SW 29.6 mph 29.6 mph 88 % 0.0 in
13:32 4.9 °F 2.9 °F 993.1 in SW 29.6 mph 29.6 mph 87 % 0.0 in
13:42 4.8 °F 2.8 °F 993.5 in SW 33.8 mph 33.8 mph 87 % 0.0 in
13:52 4.7 °F 2.7 °F 993.1 in WSW 33.3 mph 33.3 mph 87 % 0.0 in
14:02 4.8 °F 2.8 °F 993.1 in SW 25.9 mph 25.9 mph 87 % 0.0 in
14:18 4.6 °F 2.4 °F 993.1 in South 32.2 mph 32.2 mph 86 % 0.0 in
14:23 4.5 °F 2.5 °F 993.1 in West 20.4 mph 20.4 mph 87 % 0.0 in
14:33 4.3 °F 2.3 °F 993.1 in WSW 19.3 mph 19.3 mph 87 % 0.0 in
14:43 4.2 °F 2.3 °F 993.1 in West 20.9 mph 20.9 mph 88 % 0.0 in
14:47 4.1 °F 2.3 °F 993.1 in West 20.4 mph 20.4 mph 88 % 0.0 in
14:52 4.0 °F 2.2 °F 993.1 in SSW 29.6 mph 29.6 mph 88 % 0.0 in
14:57 3.9 °F 2.1 °F 993.5 in SSW 25.7 mph 25.7 mph 88 % 0.0 in
15:07 3.8 °F 2.0 °F 993.5 in South 18.5 mph 18.5 mph 88 % 0.0 in
15:12 3.8 °F 2.1 °F 993.5 in SW 25.9 mph 25.9 mph 89 % 0.0 in
15:17 3.7 °F 2.0 °F 993.5 in SW 18.5 mph 18.5 mph 89 % 0.0 in
15:32 3.4 °F 1.8 °F 993.5 in SSE 24.1 mph 24.1 mph 89 % 0.0 in
15:37 3.4 °F 1.7 °F 993.5 in SSW 18.5 mph 18.5 mph 89 % 0.0 in
15:43 3.3 °F 1.8 °F 993.5 in SSW 9.7 mph 25.7 mph 90 % 0.0 in
15:48 3.3 °F 1.8 °F 993.5 in SW 9.7 mph 25.7 mph 90 % 0.0 in
15:53 3.3 °F 1.8 °F 993.5 in SW 9.7 mph 24.1 mph 90 % 0.0 in
16:03 3.2 °F 1.7 °F 993.5 in SSW 9.7 mph 19.3 mph 90 % 0.0 in
16:08 3.2 °F 1.7 °F 993.8 in SSW 9.7 mph 19.3 mph 90 % 0.0 in
16:18 3.1 °F 1.6 °F 993.5 in SSW 9.7 mph 14.5 mph 90 % 0.0 in
16:23 3.1 °F 1.6 °F 993.8 in SSW 11.3 mph 19.3 mph 90 % 0.0 in
16:28 3.1 °F 1.6 °F 993.8 in SW 12.9 mph 19.3 mph 90 % 0.0 in
16:33 3.1 °F 1.6 °F 993.8 in SSW 11.3 mph 24.1 mph 90 % 0.0 in
16:38 3.1 °F 1.6 °F 993.8 in SW 11.3 mph 16.1 mph 90 % 0.0 in
16:43 3.0 °F 1.5 °F 993.8 in SW 12.9 mph 19.3 mph 90 % 0.0 in
16:48 2.9 °F 1.5 °F 993.8 in SW 8.0 mph 19.3 mph 90 % 0.0 in
16:58 2.9 °F 1.4 °F 993.8 in WSW 22.2 mph 22.2 mph 90 % 0.0 in
17:03 2.9 °F 1.3 °F 993.8 in SW 24.1 mph 24.1 mph 89 % 0.0 in
17:13 2.9 °F 1.3 °F 994.1 in SW 25.9 mph 25.9 mph 89 % 0.0 in
17:18 2.9 °F 1.1 °F 994.1 in SSW 22.2 mph 22.2 mph 88 % 0.0 in
17:23 2.9 °F 0.9 °F 994.1 in SW 25.9 mph 25.9 mph 87 % 0.0 in
17:33 3.0 °F 1.1 °F 994.1 in SSW 25.9 mph 25.9 mph 87 % 0.0 in
17:38 3.0 °F 1.1 °F 994.1 in WSW 16.7 mph 16.7 mph 87 % 0.0 in
17:53 3.1 °F 1.0 °F 994.1 in SSW 29.0 mph 29.0 mph 86 % 0.0 in
17:58 3.1 °F 1.0 °F 994.1 in SSW 22.2 mph 22.2 mph 86 % 0.0 in
18:03 3.2 °F 1.1 °F 994.1 in SSW 18.5 mph 18.5 mph 86 % 0.0 in
18:08 3.1 °F 1.0 °F 994.1 in SSW 24.1 mph 24.1 mph 86 % 0.0 in
18:13 3.1 °F 1.0 °F 994.1 in WSW 22.5 mph 22.5 mph 86 % 0.0 in
18:18 3.2 °F 1.1 °F 994.5 in SSE 18.5 mph 18.5 mph 86 % 0.0 in
18:23 3.1 °F 1.0 °F 994.5 in SW 18.5 mph 18.5 mph 86 % 0.0 in
18:28 3.1 °F 0.9 °F 994.5 in WSW 16.7 mph 16.7 mph 86 % 0.0 in
18:33 3.0 °F 0.9 °F 994.5 in South 18.5 mph 18.5 mph 86 % 0.0 in
18:38 3.1 °F 0.9 °F 994.5 in WSW 19.3 mph 19.3 mph 86 % 0.0 in
18:43 3.0 °F 0.9 °F 994.5 in SSW 20.4 mph 20.4 mph 86 % 0.0 in
18:48 2.9 °F 0.8 °F 994.5 in WSW 16.7 mph 16.7 mph 86 % 0.0 in
18:58 2.8 °F 0.9 °F 994.5 in South 18.5 mph 18.5 mph 87 % 0.0 in
19:03 2.8 °F 0.8 °F 994.5 in SSW 18.5 mph 18.5 mph 87 % 0.0 in
19:13 2.8 °F 0.8 °F 994.8 in WSW 18.5 mph 18.5 mph 87 % 0.0 in
19:18 2.8 °F 0.9 °F 994.5 in SSW 25.7 mph 25.7 mph 87 % 0.0 in
19:23 2.9 °F 0.9 °F 994.5 in SW 20.9 mph 20.9 mph 87 % 0.0 in
19:28 2.9 °F 0.9 °F 994.5 in SW 35.4 mph 35.4 mph 87 % 0.0 in
19:33 2.9 °F 0.8 °F 994.5 in SSW 29.6 mph 29.6 mph 86 % 0.0 in
19:38 3.0 °F 0.7 °F 994.5 in SW 24.1 mph 24.1 mph 85 % 0.0 in
19:43 3.0 °F 0.9 °F 994.5 in West 20.9 mph 20.9 mph 86 % 0.0 in
19:48 2.9 °F 0.8 °F 994.5 in SW 20.4 mph 20.4 mph 86 % 0.0 in
19:53 2.9 °F 0.8 °F 994.5 in SSW 18.5 mph 18.5 mph 86 % 0.0 in
19:58 2.9 °F 0.9 °F 994.5 in WSW 24.1 mph 24.1 mph 87 % 0.0 in
20:03 2.9 °F 0.9 °F 994.5 in SSW 20.9 mph 20.9 mph 87 % 0.0 in
20:13 2.9 °F 1.1 °F 994.5 in WSW 16.1 mph 16.1 mph 88 % 0.0 in
20:18 2.8 °F 1.1 °F 994.5 in SSW 27.8 mph 27.8 mph 88 % 0.0 in
20:23 2.8 °F 1.1 °F 994.8 in SW 31.5 mph 31.5 mph 88 % 0.0 in
20:28 2.8 °F 1.1 °F 994.5 in SSW 19.3 mph 19.3 mph 88 % 0.0 in
20:38 2.7 °F 1.1 °F 994.5 in South 14.8 mph 14.8 mph 89 % 0.0 in
20:48 2.7 °F 1.2 °F 994.5 in SW 25.9 mph 25.9 mph 90 % 0.0 in
20:53 2.7 °F 1.2 °F 994.5 in South 27.8 mph 27.8 mph 90 % 0.0 in
20:59 2.6 °F 1.0 °F 994.5 in SW 20.9 mph 20.9 mph 89 % 0.0 in
21:04 2.4 °F 0.8 °F 994.5 in WSW 22.2 mph 22.2 mph 89 % 0.0 in
21:19 2.2 °F 0.8 °F 994.5 in SSW 20.4 mph 20.4 mph 90 % 0.0 in
21:34 2.2 °F 0.7 °F 994.5 in SSW 20.4 mph 20.4 mph 90 % 0.0 in
21:39 2.1 °F 0.8 °F 994.5 in SSE 18.5 mph 18.5 mph 91 % 0.0 in
21:44 2.1 °F 0.7 °F 994.5 in South 17.7 mph 17.7 mph 91 % 0.0 in
21:54 2.1 °F 0.7 °F 994.5 in South 22.5 mph 22.5 mph 91 % 0.0 in
21:59 2.1 °F 0.7 °F 994.8 in SE 29.6 mph 29.6 mph 91 % 0.0 in
22:04 2.1 °F 0.7 °F 994.5 in SSW 24.1 mph 24.1 mph 91 % 0.0 in
22:14 2.1 °F 0.7 °F 994.5 in SSW 18.5 mph 18.5 mph 91 % 0.0 in
22:24 2.1 °F 0.9 °F 994.8 in SW 29.6 mph 29.6 mph 92 % 0.0 in
22:29 2.1 °F 0.9 °F 994.5 in SSW 19.3 mph 19.3 mph 92 % 0.0 in
22:34 2.1 °F 0.8 °F 994.5 in SSW 18.5 mph 18.5 mph 91 % 0.0 in
22:39 2.1 °F 0.8 °F 994.5 in SSW 25.9 mph 25.9 mph 91 % 0.0 in
22:44 2.1 °F 0.7 °F 994.5 in South 29.6 mph 29.6 mph 91 % 0.0 in
22:54 2.1 °F 0.8 °F 994.5 in South 33.3 mph 33.3 mph 91 % 0.0 in
23:04 2.2 °F 0.9 °F 994.5 in SSW 29.6 mph 29.6 mph 91 % 0.0 in
23:09 2.2 °F 0.8 °F 994.5 in SSW 25.9 mph 25.9 mph 91 % 0.0 in
23:14 2.2 °F 1.0 °F 994.5 in WSW 20.9 mph 20.9 mph 92 % 0.0 in
23:24 2.1 °F 0.9 °F 994.5 in SSW 16.7 mph 16.7 mph 92 % 0.0 in
23:29 2.0 °F 0.8 °F 994.5 in SSW 20.9 mph 20.9 mph 92 % 0.0 in
23:34 2.0 °F 0.8 °F 994.1 in South 22.2 mph 22.2 mph 92 % 0.0 in
23:44 2.0 °F 0.8 °F 994.1 in South 22.2 mph 22.2 mph 92 % 0.0 in
23:49 2.0 °F 0.8 °F 994.5 in SSW 25.9 mph 25.9 mph 92 % 0.0 in
23:54 2.1 °F 0.9 °F 994.1 in SW 24.1 mph 24.1 mph 92 % 0.0 in
23:59 2.1 °F 0.9 °F 994.1 in WSW 24.1 mph 24.1 mph 92 % 0.0 in
Vejr3
tilladelse af Weather Underground - 3.75 mb

script udviklet af  Jim McMurry - jmcmurry@mwt.net tilpasset til dette template  Wim van der Kuil - Leuven-Template.eu

du finder også vores vejrinformationer på:

European Weather Network

Weather Underground

AWEKAS

WeatherlinkIP

Citizen Weather Observer Program (CWOP)

udstyr som vi anvender:

vejrstation
Davis VP2+

vejrprogram
Weather Display

vejrserver
Dell E6400

hjemmeside host
Webhosting.dk

Davis VP2+

Weather Display

Dell E6400

Webhosting.dk